Time;durP1;ratioP1;P1;durP2;ratioP2;P2;SDS_P1;SDS_P2;PMS_P1;PMS_P2;Temp;Humidity;BMP_temperature;BMP_pressure;BME280_temperature;BME280_humidity;BME280_pressure;Samples;Min_cycle;Max_cycle;Signal;HPM_P1;HPM_P2
2023/01/22 00:01:12;;;;;;;59.72;22.15;;;-1.90;99.90;;;;;;5034085;28;20072;-78
2023/01/22 00:03:40;;;;;;;53.63;20.80;;;-1.90;99.90;;;;;;5035146;28;20049;-76
2023/01/22 00:06:08;;;;;;;54.78;18.73;;;-1.90;99.90;;;;;;5034174;28;20475;-77
2023/01/22 00:08:36;;;;;;;54.67;19.95;;;-1.90;99.90;;;;;;5017938;28;20045;-75
2023/01/22 00:11:04;;;;;;;53.85;20.10;;;-1.90;99.90;;;;;;5033363;28;20476;-75
2023/01/22 00:13:32;;;;;;;53.80;19.25;;;-1.90;99.90;;;;;;5034030;28;20473;-77
2023/01/22 00:15:59;;;;;;;50.03;18.75;;;-1.90;99.90;;;;;;5035258;28;20049;-75
2023/01/22 00:18:27;;;;;;;48.10;19.30;;;-2.00;99.90;;;;;;5033139;28;20053;-76
2023/01/22 00:20:55;;;;;;;58.45;20.10;;;-2.00;99.90;;;;;;5035001;28;20045;-77
2023/01/22 00:23:23;;;;;;;66.97;19.92;;;-2.00;99.90;;;;;;5033907;28;20053;-76
2023/01/22 00:26:11;;;;;;;56.25;19.98;;;-2.00;99.90;;;;;;5032848;28;20486;-78
2023/01/22 00:28:42;;;;;;;47.72;19.67;;;-2.10;99.90;;;;;;5017704;28;20049;-77
2023/01/22 00:31:11;;;;;;;52.70;19.65;;;-2.10;99.90;;;;;;5032913;28;20060;-76
2023/01/22 00:33:42;;;;;;;57.10;19.35;;;-2.10;99.90;;;;;;5034038;28;20064;-75
2023/01/22 00:36:14;;;;;;;50.45;18.70;;;-2.10;99.90;;;;;;5033761;28;20420;-75
2023/01/22 00:38:41;;;;;;;58.28;18.77;;;-2.10;99.90;;;;;;5033004;28;20467;-76
2023/01/22 00:41:09;;;;;;;49.42;17.88;;;-2.10;99.90;;;;;;5033951;28;20372;-77
2023/01/22 00:43:40;;;;;;;;;;;-2.10;99.90;;;;;;5034306;28;20064;-75
2023/01/22 00:46:09;;;;;;;50.97;17.15;;;-2.10;99.90;;;;;;5016232;28;19931;-78
2023/01/22 00:48:37;;;;;;;53.42;18.77;;;-2.10;99.90;;;;;;5033898;28;20049;-76
2023/01/22 00:51:09;;;;;;;50.55;18.60;;;-2.10;99.90;;;;;;5032572;28;20202;-75
2023/01/22 00:53:37;;;;;;;52.10;18.25;;;-2.10;99.90;;;;;;5017419;28;20049;-78
2023/01/22 00:56:04;;;;;;;53.78;19.17;;;-2.10;99.90;;;;;;5033624;28;20523;-75
2023/01/22 00:58:32;;;;;;;48.80;17.30;;;-2.20;99.90;;;;;;5016143;28;20045;-76
2023/01/22 01:01:03;;;;;;;;;;;-2.10;99.90;;;;;;5017592;28;20495;-76
2023/01/22 01:03:33;;;;;;;52.05;17.80;;;-0.80;99.90;;;;;;5017489;28;19928;-75
2023/01/22 01:06:04;;;;;;;48.92;18.50;;;-2.20;99.90;;;;;;5016224;28;20072;-77
2023/01/22 01:08:38;;;;;;;56.20;18.60;;;-2.20;99.90;;;;;;5017258;28;20046;-76
2023/01/22 01:11:10;;;;;;;52.15;17.98;;;-2.20;99.90;;;;;;5015875;28;20289;-75
2023/01/22 01:13:40;;;;;;;71.72;21.35;;;-2.20;99.90;;;;;;5034681;28;20053;-76
2023/01/22 01:16:12;;;;;;;62.47;20.73;;;-2.30;99.90;;;;;;5033791;28;20050;-75
2023/01/22 01:18:40;;;;;;;61.15;21.38;;;-2.30;99.90;;;;;;5032549;28;20417;-78
2023/01/22 01:21:10;;;;;;;57.42;20.02;;;-2.30;99.90;;;;;;5034421;28;20052;-77
2023/01/22 01:23:38;;;;;;;54.15;19.33;;;-2.30;99.90;;;;;;5016846;28;20045;-78
2023/01/22 01:26:08;;;;;;;53.10;19.60;;;-2.30;99.90;;;;;;5035386;28;20456;-77
2023/01/22 01:28:39;;;;;;;57.33;19.75;;;-2.30;99.90;;;;;;5037243;28;20041;-79
2023/01/22 01:31:10;;;;;;;53.45;19.60;;;-2.30;99.90;;;;;;5036978;28;20643;-77
2023/01/22 01:33:38;;;;;;;49.05;19.42;;;-2.30;99.90;;;;;;5038131;28;20369;-75
2023/01/22 01:36:16;;;;;;;54.70;19.83;;;-2.30;99.90;;;;;;5004325;28;20061;-77
2023/01/22 01:38:54;;;;;;;50.90;18.90;;;-2.30;99.90;;;;;;5036819;28;20049;-76
2023/01/22 01:41:24;;;;;;;55.05;19.90;;;-2.40;99.90;;;;;;5037958;28;20057;-75
2023/01/22 01:44:10;;;;;;;53.30;19.08;;;-2.40;99.90;;;;;;5036919;28;20053;-78
2023/01/22 01:46:43;;;;;;;53.58;18.60;;;-2.50;99.90;;;;;;5020571;28;20388;-78
2023/01/22 01:49:23;;;;;;;51.72;18.90;;;-2.50;99.90;;;;;;5036708;28;20045;-76
2023/01/22 01:51:54;;;;;;;56.78;19.98;;;-2.50;99.90;;;;;;5019527;28;20045;-75
2023/01/22 01:54:21;;;;;;;52.13;20.67;;;-2.50;99.90;;;;;;5036972;28;20515;-76
2023/01/22 01:56:52;;;;;;;53.78;19.58;;;-2.50;99.90;;;;;;5020021;28;20054;-76
2023/01/22 01:59:21;;;;;;;57.28;19.90;;;-2.50;99.90;;;;;;5019224;28;20045;-76
2023/01/22 02:01:53;;;;;;;54.00;18.85;;;-0.30;99.90;;;;;;5036470;28;20392;-75
2023/01/22 02:04:22;;;;;;;60.95;20.25;;;-2.50;99.90;;;;;;5035426;28;20060;-76
2023/01/22 02:06:50;;;;;;;54.13;19.42;;;-2.50;99.90;;;;;;5037288;28;20071;-76
2023/01/22 02:09:17;;;;;;;58.50;20.02;;;-2.50;99.90;;;;;;5037193;28;20045;-76
2023/01/22 02:11:45;;;;;;;62.75;19.60;;;-2.50;99.90;;;;;;5035341;28;20045;-77
2023/01/22 02:14:17;;;;;;;50.83;19.27;;;-0.30;99.90;;;;;;5036525;28;20049;-79
2023/01/22 02:16:44;;;;;;;59.75;20.23;;;-1.70;99.90;;;;;;5036702;28;20045;-79
2023/01/22 02:19:12;;;;;;;56.88;19.85;;;-2.50;99.90;;;;;;5035293;28;20072;-76
2023/01/22 02:21:43;;;;;;;58.30;19.65;;;-2.50;99.90;;;;;;5037194;28;20049;-78
2023/01/22 02:24:15;;;;;;;55.30;19.95;;;-2.50;99.90;;;;;;5018660;28;20049;-78
2023/01/22 02:26:44;;;;;;;60.45;18.95;;;-2.50;99.90;;;;;;5020103;28;20448;-78
2023/01/22 02:29:16;;;;;;;55.00;20.60;;;-2.50;99.90;;;;;;5036369;28;20042;-77
2023/01/22 02:31:44;;;;;;;55.50;19.42;;;-1.30;99.90;;;;;;5002122;28;20464;-76
2023/01/22 02:34:13;;;;;;;53.10;20.00;;;-2.60;99.90;;;;;;5019865;28;20049;-78
2023/01/22 02:36:44;;;;;;;55.58;19.95;;;-2.60;99.90;;;;;;5019194;28;20042;-75
2023/01/22 02:39:12;;;;;;;64.30;20.33;;;-2.60;99.90;;;;;;5002401;28;20053;-77
2023/01/22 02:41:39;;;;;;;60.78;20.60;;;-2.60;99.90;;;;;;5035970;28;20052;-75
2023/01/22 02:44:10;;;;;;;58.42;20.70;;;-2.60;99.90;;;;;;5034862;28;20052;-77
2023/01/22 02:46:37;;;;;;;52.03;20.15;;;-2.70;99.90;;;;;;5035938;28;20043;-75
2023/01/22 02:49:05;;;;;;;52.30;19.83;;;-2.60;99.90;;;;;;5003281;28;20065;-78
2023/01/22 02:51:34;;;;;;;57.03;20.17;;;-2.60;99.90;;;;;;5034569;28;20050;-78
2023/01/22 02:54:02;;;;;;;60.65;21.02;;;-2.60;99.90;;;;;;5035669;28;20057;-77
2023/01/22 02:56:29;;;;;;;65.68;21.35;;;-2.70;99.90;;;;;;5035498;28;20381;-78
2023/01/22 02:59:01;;;;;;;63.30;21.88;;;-2.70;99.90;;;;;;5018374;28;20061;-75
2023/01/22 03:01:28;;;;;;;63.42;22.23;;;-2.70;99.90;;;;;;5002459;28;20065;-77
2023/01/22 03:04:12;;;;;;;62.20;21.60;;;-2.70;99.90;;;;;;5035468;28;20046;-78
2023/01/22 03:06:43;;;;;;;58.60;20.75;;;-0.50;99.90;;;;;;5035443;28;20487;-78
2023/01/22 03:09:13;;;;;;;60.60;21.90;;;-2.70;99.90;;;;;;5035433;28;20045;-75
2023/01/22 03:11:42;;;;;;;71.07;21.00;;;-2.70;99.90;;;;;;5034065;28;20044;-77
2023/01/22 03:22:33;;;;;;;59.38;21.48;;;-2.90;99.90;;;;;;5035396;28;20050;-78
2023/01/22 03:25:01;;;;;;;;;;;-2.90;99.90;;;;;;5035207;28;20049;-77
2023/01/22 03:27:30;;;;;;;63.00;20.20;;;-2.90;99.90;;;;;;5018774;28;20339;-77
2023/01/22 03:29:58;;;;;;;63.67;21.52;;;-2.30;99.90;;;;;;5035879;28;20487;-75
2023/01/22 03:32:26;;;;;;;;;;;-2.90;99.90;;;;;;5034120;28;20041;-78
2023/01/22 03:34:54;;;;;;;59.08;20.92;;;-2.90;99.90;;;;;;5034938;28;19936;-78
2023/01/22 03:37:23;;;;;;;60.92;21.95;;;-3.00;99.90;;;;;;5018863;28;20057;-77
2023/01/22 03:39:53;;;;;;;66.57;23.00;;;-3.00;99.90;;;;;;5018135;28;20053;-79
2023/01/22 03:42:29;;;;;;;64.97;23.63;;;-3.00;99.90;;;;;;5003495;28;20054;-79
2023/01/22 03:44:57;;;;;;;71.28;23.55;;;-3.00;99.90;;;;;;5017109;28;20045;-75
2023/01/22 03:47:26;;;;;;;70.47;23.60;;;-2.90;99.90;;;;;;5035265;28;20045;-77
2023/01/22 03:49:53;;;;;;;66.57;23.88;;;-2.90;99.90;;;;;;5034558;28;20045;-77
2023/01/22 03:52:21;;;;;;;71.68;25.08;;;-2.90;99.90;;;;;;5033363;28;20046;-77
2023/01/22 03:54:48;;;;;;;64.28;22.90;;;-2.90;99.90;;;;;;5018403;28;20049;-79
2023/01/22 03:57:16;;;;;;;57.72;23.17;;;-2.90;99.90;;;;;;5034619;28;20057;-79
2023/01/22 03:59:44;;;;;;;65.95;22.85;;;-2.90;99.90;;;;;;5017123;28;20041;-76
2023/01/22 04:02:12;;;;;;;61.80;23.00;;;-2.90;99.90;;;;;;5017850;28;20053;-76
2023/01/22 04:04:53;;;;;;;61.38;22.55;;;-2.90;99.90;;;;;;5033433;28;20049;-78
2023/01/22 04:07:20;;;;;;;66.03;23.98;;;-2.90;99.90;;;;;;5018146;28;20384;-79
2023/01/22 04:09:51;;;;;;;70.80;23.65;;;-2.90;99.90;;;;;;5034157;28;20056;-76
2023/01/22 04:12:19;;;;;;;66.70;23.45;;;-2.90;99.90;;;;;;5016414;28;20052;-77
2023/01/22 04:14:46;;;;;;;72.30;24.33;;;-2.90;99.90;;;;;;5034320;28;20053;-78
2023/01/22 04:17:14;;;;;;;62.53;22.50;;;-3.00;99.90;;;;;;5034444;28;20045;-77
2023/01/22 04:20:08;;;;;;;70.03;23.80;;;-3.00;99.90;;;;;;5018020;28;20052;-77
2023/01/22 04:22:55;;;;;;;69.10;24.33;;;-3.00;99.90;;;;;;5018264;28;20058;-76
2023/01/22 04:25:22;;;;;;;63.30;23.55;;;-3.00;99.90;;;;;;5032749;28;20049;-78
2023/01/22 04:27:50;;;;;;;63.92;23.17;;;-3.00;99.90;;;;;;5034284;28;20052;-75
2023/01/22 04:30:19;;;;;;;64.28;23.67;;;-3.00;99.90;;;;;;5034030;28;20042;-75
2023/01/22 04:32:50;;;;;;;77.80;24.65;;;-3.00;99.90;;;;;;5033134;28;20041;-78
2023/01/22 04:35:41;;;;;;;71.97;24.88;;;-3.10;99.90;;;;;;5033511;28;20052;-78
2023/01/22 04:38:10;;;;;;;;;;;-3.00;99.90;;;;;;5017229;28;20068;-76
2023/01/22 04:40:38;;;;;;;63.63;22.77;;;-3.10;99.90;;;;;;5017672;28;19921;-78
2023/01/22 04:43:06;;;;;;;;;;;-3.00;99.90;;;;;;5034262;28;20064;-76
2023/01/22 04:45:34;;;;;;;65.20;22.85;;;-3.00;99.90;;;;;;5032518;28;19921;-78
2023/01/22 04:48:02;;;;;;;62.22;23.20;;;-3.00;99.90;;;;;;5033671;28;20040;-79
2023/01/22 04:50:31;;;;;;;64.57;23.23;;;-3.00;99.90;;;;;;5017216;28;20064;-78
2023/01/22 04:53:00;;;;;;;68.38;24.13;;;-3.00;99.90;;;;;;4999882;28;20049;-77
2023/01/22 04:55:28;;;;;;;72.32;24.40;;;-3.00;99.90;;;;;;5033684;28;20392;-78
2023/01/22 04:58:01;;;;;;;68.43;25.27;;;-3.10;99.90;;;;;;5000747;28;20053;-78
2023/01/22 05:00:29;;;;;;;69.28;25.05;;;-3.00;99.90;;;;;;5019084;28;20057;-79
2023/01/22 05:03:00;;;;;;;71.00;24.73;;;-3.00;99.90;;;;;;5005087;28;20054;-76
2023/01/22 05:05:30;;;;;;;70.00;24.45;;;-3.10;99.90;;;;;;5020408;28;20381;-78
2023/01/22 05:07:58;;;;;;;65.70;24.13;;;-3.10;99.90;;;;;;5005223;28;20042;-76
2023/01/22 05:10:28;;;;;;;71.65;26.00;;;-3.10;99.90;;;;;;5037419;28;20064;-78
2023/01/22 05:12:56;;;;;;;61.67;24.02;;;-3.10;99.90;;;;;;5036397;28;20068;-78
2023/01/22 05:15:25;;;;;;;66.35;24.85;;;-3.10;99.90;;;;;;5037762;28;20041;-79
2023/01/22 05:18:03;;;;;;;70.93;24.30;;;-3.10;99.90;;;;;;5036571;28;20049;-75
2023/01/22 05:20:34;;;;;;;69.88;24.73;;;-3.00;99.90;;;;;;5021746;28;20503;-79
2023/01/22 05:23:02;;;;;;;71.18;24.58;;;-3.00;99.90;;;;;;5037517;28;20373;-76
2023/01/22 05:25:30;;;;;;;66.93;24.25;;;-3.10;99.90;;;;;;5036402;28;20064;-77
2023/01/22 05:27:59;;;;;;;75.15;25.33;;;-3.00;99.90;;;;;;5038033;28;20368;-77
2023/01/22 05:30:47;;;;;;;67.40;25.23;;;-3.10;99.90;;;;;;5036261;28;20045;-78
2023/01/22 05:33:27;;;;;;;;;;;-3.10;99.90;;;;;;5037783;28;20476;-78
2023/01/22 05:35:57;;;;;;;65.88;22.95;;;-2.90;99.90;;;;;;5004320;28;20344;-80
2023/01/22 05:38:26;;;;;;;65.50;24.10;;;-3.10;99.90;;;;;;5036349;28;20046;-78
2023/01/22 05:40:55;;;;;;;69.05;24.08;;;-3.10;99.90;;;;;;5037073;28;20053;-76
2023/01/22 05:43:22;;;;;;;67.70;24.42;;;-3.10;99.90;;;;;;5020494;28;20060;-76
2023/01/22 05:46:01;;;;;;;62.17;23.42;;;-3.10;99.90;;;;;;5035787;28;20353;-76
2023/01/22 05:49:02;;;;;;;67.07;23.13;;;-3.10;99.90;;;;;;4993980;28;20070;-77
2023/01/22 05:51:31;;;;;;;61.33;23.45;;;-3.10;99.90;;;;;;5035979;28;20044;-76
2023/01/22 05:53:59;;;;;;;;;;;-3.20;99.90;;;;;;5037298;28;20045;-78
2023/01/22 05:56:30;;;;;;;63.42;22.95;;;-3.20;99.90;;;;;;5036845;28;19928;-78
2023/01/22 05:58:58;;;;;;;68.63;24.80;;;-3.20;99.90;;;;;;5019748;28;20469;-78
2023/01/22 06:01:26;;;;;;;65.85;23.65;;;-3.20;99.90;;;;;;5019763;28;20141;-79
2023/01/22 06:03:56;;;;;;;73.03;25.13;;;-2.80;99.90;;;;;;5021082;28;20041;-79
2023/01/22 06:06:25;;;;;;;75.22;25.05;;;-3.30;99.90;;;;;;5002791;28;20056;-77
2023/01/22 06:08:54;;;;;;;69.15;24.38;;;-3.20;99.90;;;;;;5036703;28;20049;-77
2023/01/22 06:11:27;;;;;;;62.60;23.75;;;-3.30;99.90;;;;;;5019017;28;20045;-76
2023/01/22 06:13:54;;;;;;;67.28;24.42;;;-2.60;99.90;;;;;;5036871;28;20072;-79
2023/01/22 06:16:22;;;;;;;;;;;-3.30;99.90;;;;;;5020709;28;20065;-78
2023/01/22 06:18:55;;;;;;;61.22;21.88;;;-3.70;99.90;;;;;;5035357;28;20386;-77
2023/01/22 06:21:26;;;;;;;69.28;23.40;;;-3.30;99.90;;;;;;5036457;28;20057;-77
2023/01/22 06:23:54;;;;;;;70.30;23.88;;;-3.30;99.90;;;;;;5020194;28;20053;-78
2023/01/22 06:26:22;;;;;;;77.30;24.50;;;-3.40;99.90;;;;;;5018674;28;20361;-79
2023/01/22 06:28:49;;;;;;;65.50;23.98;;;-3.30;99.90;;;;;;5019956;28;20050;-80
2023/01/22 06:31:17;;;;;;;65.15;24.15;;;-3.30;99.90;;;;;;5018780;28;20433;-78
2023/01/22 06:33:45;;;;;;;69.05;24.30;;;-3.30;99.90;;;;;;5003571;28;20049;-78
2023/01/22 06:36:14;;;;;;;69.78;22.50;;;-3.40;99.90;;;;;;5035960;28;20048;-76
2023/01/22 06:38:42;;;;;;;62.55;23.25;;;-3.30;99.90;;;;;;5018814;28;20049;-75
2023/01/22 06:41:14;;;;;;;63.67;23.63;;;-3.40;99.90;;;;;;5036188;28;20464;-78
2023/01/22 06:43:44;;;;;;;62.92;22.90;;;-3.40;99.90;;;;;;5020128;28;20053;-77
2023/01/22 06:46:11;;;;;;;63.00;22.08;;;-3.30;99.90;;;;;;5018226;28;20045;-79
2023/01/22 06:49:01;;;;;;;74.18;23.63;;;-3.40;99.90;;;;;;5019155;28;20060;-79
2023/01/22 06:51:29;;;;;;;67.28;22.73;;;-3.40;99.90;;;;;;5018509;28;20056;-78
2023/01/22 06:53:58;;;;;;;64.93;22.55;;;-3.40;99.90;;;;;;5036141;28;20048;-76
2023/01/22 06:56:27;;;;;;;73.53;22.58;;;-3.40;99.90;;;;;;5003407;28;20389;-78
2023/01/22 06:58:56;;;;;;;73.18;24.00;;;-3.40;99.90;;;;;;5017996;28;20136;-77
2023/01/22 07:01:24;;;;;;;73.07;24.40;;;-3.40;99.90;;;;;;5023222;28;20374;-77
2023/01/22 07:03:52;;;;;;;69.85;24.88;;;-3.40;99.90;;;;;;4999387;28;20396;-78
2023/01/22 07:06:20;;;;;;;65.47;25.13;;;-3.40;99.90;;;;;;5015394;28;20053;-76
2023/01/22 07:08:48;;;;;;;82.60;26.88;;;-3.40;99.90;;;;;;4999628;28;20046;-76
2023/01/22 07:11:15;;;;;;;65.90;24.48;;;-3.40;99.90;;;;;;5015354;28;20049;-78
2023/01/22 07:13:43;;;;;;;72.43;25.67;;;-3.40;99.90;;;;;;5016436;28;20045;-76
2023/01/22 07:16:11;;;;;;;50.83;18.42;;;-3.40;99.90;;;;;;4983058;28;20057;-79
2023/01/22 07:18:39;;;;;;;65.38;24.42;;;-3.40;99.90;;;;;;4998466;28;20050;-77
2023/01/22 07:21:06;;;;;;;64.22;23.90;;;-3.40;99.90;;;;;;4983293;28;20045;-75
2023/01/22 07:23:34;;;;;;;65.57;22.33;;;-3.50;99.90;;;;;;4998426;28;20049;-78
2023/01/22 07:26:01;;;;;;;69.28;23.27;;;-3.40;99.90;;;;;;4981537;28;20076;-78
2023/01/22 07:28:29;;;;;;;60.58;22.83;;;-3.50;99.90;;;;;;4983460;28;20050;-76
2023/01/22 07:30:56;;;;;;;64.32;22.33;;;-3.50;99.90;;;;;;4981502;28;20050;-75
2023/01/22 07:33:24;;;;;;;61.58;21.88;;;-3.50;99.90;;;;;;4998362;28;20054;-76
2023/01/22 07:35:55;;;;;;;43.50;16.60;;;-3.40;99.90;;;;;;4998626;28;20481;-76
2023/01/22 07:38:26;;;;;;;59.08;21.25;;;-3.50;99.90;;;;;;4981391;28;20469;-76
2023/01/22 07:40:58;;;;;;;57.03;21.70;;;-3.50;99.90;;;;;;5016460;28;20057;-77
2023/01/22 07:43:26;;;;;;;65.05;21.52;;;-3.60;99.90;;;;;;4982877;28;20053;-75
2023/01/22 07:45:56;;;;;;;53.15;20.50;;;-3.60;99.90;;;;;;4997547;28;20061;-77
2023/01/22 07:48:24;;;;;;;61.40;21.38;;;-3.60;99.90;;;;;;4998632;28;20381;-74
2023/01/22 07:50:51;;;;;;;56.15;21.52;;;-3.70;99.90;;;;;;5014837;28;20053;-78
2023/01/22 07:53:19;;;;;;;68.68;22.70;;;-3.70;99.90;;;;;;5015540;28;20061;-79
2023/01/22 07:55:46;;;;;;;67.60;22.48;;;-3.60;99.90;;;;;;4999036;28;20377;-79
2023/01/22 07:58:14;;;;;;;61.58;21.05;;;-3.70;99.90;;;;;;5014613;28;20038;-79
2023/01/22 08:00:41;;;;;;;65.22;22.58;;;-3.70;99.90;;;;;;4993017;28;20045;-78
2023/01/22 08:03:09;;;;;;;58.90;21.77;;;-2.60;99.90;;;;;;5034397;28;20049;-79
2023/01/22 08:05:41;;;;;;;56.28;20.52;;;-3.70;99.90;;;;;;5033162;28;20037;-79
2023/01/22 08:08:21;;;;;;;60.83;20.10;;;-2.30;99.90;;;;;;5035254;28;20053;-76
2023/01/22 08:10:49;;;;;;;60.63;20.50;;;-3.60;99.90;;;;;;5033659;28;20045;-77
2023/01/22 08:13:16;;;;;;;56.75;20.30;;;-3.60;99.90;;;;;;5034917;28;20053;-78
2023/01/22 08:15:44;;;;;;;56.17;19.95;;;-3.60;99.90;;;;;;5034911;28;20044;-76
2023/01/22 08:18:12;;;;;;;53.42;19.95;;;-3.60;99.90;;;;;;5033926;28;20050;-76
2023/01/22 08:20:39;;;;;;;67.53;20.58;;;-3.60;99.90;;;;;;5034428;28;20052;-79
2023/01/22 08:23:06;;;;;;;50.60;19.90;;;-3.60;99.90;;;;;;5034317;28;20080;-77
2023/01/22 08:25:34;;;;;;;59.08;20.63;;;-3.60;99.90;;;;;;5033835;28;20053;-75
2023/01/22 08:28:03;;;;;;;56.58;20.63;;;-3.60;99.90;;;;;;5035141;28;20368;-76
2023/01/22 08:30:33;;;;;;;65.13;21.30;;;-3.60;99.90;;;;;;5033856;28;20045;-75
2023/01/22 08:33:14;;;;;;;59.25;20.48;;;-3.60;99.90;;;;;;5034550;28;20041;-78
2023/01/22 08:35:42;;;;;;;66.70;21.20;;;-3.60;99.90;;;;;;5016958;28;20045;-76
2023/01/22 08:38:09;;;;;;;63.35;21.52;;;-3.60;99.90;;;;;;5000404;28;20060;-78
2023/01/22 08:40:39;;;;;;;62.00;20.90;;;-3.60;99.90;;;;;;5017600;28;20068;-75
2023/01/22 08:43:09;;;;;;;61.25;21.65;;;-1.80;99.90;;;;;;5033703;28;20061;-76
2023/01/22 08:45:39;;;;;;;56.97;19.17;;;-3.50;99.90;;;;;;5032608;28;20049;-80
2023/01/22 08:48:06;;;;;;;53.08;19.67;;;-3.40;99.90;;;;;;5017595;28;20056;-79
2023/01/22 08:50:34;;;;;;;55.38;19.13;;;-3.40;99.90;;;;;;5017660;28;20049;-77
2023/01/22 08:53:01;;;;;;;62.35;20.65;;;-3.40;99.90;;;;;;5033544;28;20045;-76
2023/01/22 08:55:29;;;;;;;53.80;19.27;;;-3.40;99.90;;;;;;5033776;28;20448;-75
2023/01/22 08:57:57;;;;;;;57.17;20.13;;;-2.40;99.90;;;;;;5032506;28;20076;-80
2023/01/22 09:00:25;;;;;;;;;;;-3.30;99.90;;;;;;5029807;28;20358;-77
2023/01/22 09:02:58;;;;;;;49.72;19.23;;;-3.20;99.90;;;;;;4981766;28;19921;-79
2023/01/22 09:05:27;;;;;;;61.58;19.90;;;-3.20;99.90;;;;;;4996474;28;20373;-79
2023/01/22 09:07:54;;;;;;;48.33;18.08;;;-3.20;99.90;;;;;;5014815;28;20042;-80
2023/01/22 09:10:24;;;;;;;57.65;19.88;;;-3.10;99.90;;;;;;4997813;28;20046;-80
2023/01/22 09:12:52;;;;;;;54.20;19.40;;;-3.10;99.90;;;;;;4980237;28;20049;-78
2023/01/22 09:15:19;;;;;;;56.05;19.90;;;-3.10;99.90;;;;;;5014637;28;20041;-76
2023/01/22 09:17:47;;;;;;;58.13;20.00;;;-3.00;99.90;;;;;;4996472;28;20309;-76
2023/01/22 09:20:15;;;;;;;59.03;19.77;;;-3.00;99.90;;;;;;4997426;28;20050;-76
2023/01/22 09:22:44;;;;;;;55.28;20.33;;;-2.90;99.90;;;;;;4997376;28;20058;-78
2023/01/22 09:25:12;;;;;;;53.67;19.08;;;-2.90;99.90;;;;;;5013395;28;20046;-79
2023/01/22 09:27:39;;;;;;;58.05;20.63;;;-2.90;99.90;;;;;;4981504;28;20046;-79
2023/01/22 09:30:13;;;;;;;52.63;19.83;;;-2.80;99.90;;;;;;5014737;28;20050;-77
2023/01/22 09:32:40;;;;;;;65.53;20.98;;;-2.80;99.90;;;;;;4996292;28;20495;-78
2023/01/22 09:35:08;;;;;;;60.30;20.90;;;-2.70;99.90;;;;;;4997447;28;20046;-77
2023/01/22 09:37:36;;;;;;;;;;;-2.70;99.90;;;;;;4997168;28;20049;-76
2023/01/22 09:40:04;;;;;;;59.50;20.05;;;-2.60;99.90;;;;;;5014336;28;19928;-80
2023/01/22 09:42:33;;;;;;;;;;;-2.50;99.90;;;;;;5014821;28;20050;-79
2023/01/22 09:45:06;;;;;;;61.10;19.15;;;-2.50;99.90;;;;;;4980044;28;19921;-77
2023/01/22 09:47:48;;;;;;;56.65;20.25;;;-2.50;99.90;;;;;;5018001;28;20046;-78
2023/01/22 09:50:25;;;;;;;58.95;21.17;;;-2.40;99.90;;;;;;5001274;28;20050;-79
2023/01/22 09:52:56;;;;;;;68.35;22.23;;;-2.40;99.90;;;;;;4999741;28;20046;-78
2023/01/22 09:55:29;;;;;;;65.63;22.85;;;-2.30;99.90;;;;;;4984712;28;20050;-79
2023/01/22 09:58:01;;;;;;;61.60;22.98;;;-2.30;99.90;;;;;;4999719;28;20392;-76
2023/01/22 10:00:39;;;;;;;67.85;23.02;;;-2.30;99.90;;;;;;4992229;28;20049;-77
2023/01/22 10:03:23;;;;;;;67.63;23.60;;;-2.20;99.90;;;;;;5020410;28;20468;-76
2023/01/22 10:05:56;;;;;;;71.75;23.63;;;-2.20;99.90;;;;;;5035182;28;20057;-76
2023/01/22 10:08:32;;;;;;;70.90;24.48;;;-2.20;99.90;;;;;;5020078;28;20041;-77
2023/01/22 10:11:00;;;;;;;78.93;26.27;;;-2.10;99.90;;;;;;5035903;28;20045;-77
2023/01/22 10:13:31;;;;;;;85.63;27.80;;;-2.10;99.90;;;;;;5036759;28;20071;-78
2023/01/22 10:15:59;;;;;;;91.32;31.13;;;-2.00;99.90;;;;;;5037430;28;20469;-76
2023/01/22 10:18:52;;;;;;;88.03;30.08;;;-2.00;99.90;;;;;;5036411;28;20056;-76
2023/01/22 10:21:29;;;;;;;100.95;33.65;;;-2.00;99.90;;;;;;5037339;28;20050;-77
2023/01/22 10:23:58;;;;;;;108.57;36.17;;;-0.10;99.90;;;;;;5037092;28;20045;-76
2023/01/22 10:26:46;;;;;;;113.40;37.67;;;-1.90;99.90;;;;;;5035166;28;20053;-79
2023/01/22 10:29:21;;;;;;;114.45;38.38;;;-1.70;99.90;;;;;;5019504;28;20049;-77
2023/01/22 10:31:54;;;;;;;117.80;38.72;;;-1.70;99.90;;;;;;5018552;28;20045;-77
2023/01/22 10:34:29;;;;;;;149.95;49.83;;;-1.60;99.90;;;;;;5036861;28;20045;-76
2023/01/22 10:37:01;;;;;;;184.98;58.88;;;-1.60;99.90;;;;;;5019678;28;20065;-79
2023/01/22 10:39:43;;;;;;;151.07;54.35;;;-1.40;99.90;;;;;;5034984;28;20049;-77
2023/01/22 10:42:22;;;;;;;221.95;77.75;;;-1.30;99.90;;;;;;5037274;28;20041;-76
2023/01/22 10:44:55;;;;;;;220.85;78.55;;;-1.20;99.90;;;;;;5035015;28;20484;-78
2023/01/22 10:47:26;;;;;;;251.88;93.00;;;-1.00;99.90;;;;;;5035939;28;20041;-77
2023/01/22 10:50:14;;;;;;;274.75;95.68;;;-0.90;99.90;;;;;;5035768;28;20041;-77
2023/01/22 10:52:52;;;;;;;273.50;100.63;;;-0.80;99.90;;;;;;5034600;28;20037;-78
2023/01/22 10:55:21;;;;;;;274.60;102.43;;;-0.60;99.90;;;;;;5036373;28;20052;-78
2023/01/22 10:57:57;;;;;;;260.40;101.72;;;-0.50;99.90;;;;;;5034210;28;20068;-80
2023/01/22 11:00:32;;;;;;;267.13;101.68;;;-0.30;99.90;;;;;;5031179;28;20046;-78
2023/01/22 11:03:23;;;;;;;245.85;100.00;;;-0.20;99.90;;;;;;5016358;28;20046;-76
2023/01/22 11:05:57;;;;;;;212.10;89.07;;;-0.10;99.90;;;;;;4998141;28;20041;-76
2023/01/22 11:08:29;;;;;;;205.57;84.13;;;0.00;99.90;;;;;;5016438;28;20053;-77
2023/01/22 11:11:01;;;;;;;218.15;91.80;;;0.00;99.90;;;;;;4998038;28;20057;-79
2023/01/22 11:13:40;;;;;;;196.15;89.18;;;0.00;99.90;;;;;;4999550;28;20053;-76
2023/01/22 11:16:20;;;;;;;207.85;84.28;;;0.10;99.90;;;;;;4999109;28;20045;-79
2023/01/22 11:19:04;;;;;;;190.70;83.60;;;0.10;99.90;;;;;;4997998;28;20050;-77
2023/01/22 11:21:39;;;;;;;186.77;73.43;;;0.20;99.90;;;;;;4998789;28;20037;-79
2023/01/22 11:24:26;;;;;;;192.07;79.43;;;0.80;99.90;;;;;;5015793;28;20477;-78
2023/01/22 11:27:19;;;;;;;188.43;74.65;;;0.30;99.90;;;;;;4998996;28;20373;-77
2023/01/22 11:30:04;;;;;;;195.35;77.10;;;0.30;99.90;;;;;;4982693;28;20054;-77
2023/01/22 11:32:58;;;;;;;172.63;73.20;;;0.40;99.90;;;;;;4997780;28;20061;-78
2023/01/22 11:35:28;;;;;;;180.30;74.97;;;0.50;99.90;;;;;;5016007;28;20046;-79
2023/01/22 11:38:13;;;;;;;154.45;66.97;;;0.50;99.90;;;;;;5014964;28;20369;-76
2023/01/22 11:40:58;;;;;;;162.10;66.95;;;0.50;99.90;;;;;;4999130;28;20042;-78
2023/01/22 11:43:39;;;;;;;179.65;73.10;;;0.60;99.90;;;;;;5015936;28;20042;-77
2023/01/22 11:46:40;;;;;;;180.05;73.72;;;0.60;99.90;;;;;;5014741;28;20473;-78
2023/01/22 11:49:24;;;;;;;175.40;72.10;;;0.70;99.90;;;;;;5015928;28;20045;-78
2023/01/22 11:52:21;;;;;;;157.40;70.95;;;0.80;99.90;;;;;;4997612;28;20480;-79
2023/01/22 11:54:55;;;;;;;170.85;72.05;;;0.90;99.90;;;;;;4982143;28;20046;-77
2023/01/22 11:57:26;;;;;;;168.60;70.47;;;0.90;99.90;;;;;;5015796;28;20042;-78
2023/01/22 12:00:16;;;;;;;139.10;60.70;;;1.00;99.90;;;;;;5015588;28;20473;-78
2023/01/22 12:03:12;;;;;;;163.73;72.22;;;1.00;99.90;;;;;;5015519;28;20365;-79
2023/01/22 12:06:11;;;;;;;156.00;68.72;;;1.10;99.90;;;;;;4996995;28;20376;-75
2023/01/22 12:09:00;;;;;;;143.00;59.72;;;1.20;99.90;;;;;;4998052;28;20057;-79
2023/01/22 12:11:56;;;;;;;134.48;61.10;;;1.20;99.90;;;;;;4997115;28;20050;-77
2023/01/22 12:14:37;;;;;;;136.50;59.13;;;1.20;99.90;;;;;;5015954;28;20049;-76
2023/01/22 12:17:34;;;;;;;134.57;60.25;;;1.30;99.90;;;;;;5015471;28;20042;-75
2023/01/22 12:20:20;;;;;;;;;;;1.40;99.90;;;;;;5016030;28;20054;-77
2023/01/22 12:23:23;;;;;;;106.88;43.00;;;1.40;99.90;;;;;;5015700;28;20313;-76
2023/01/22 12:26:03;;;;;;;74.35;33.17;;;1.60;99.90;;;;;;4978224;28;20384;-77
2023/01/22 12:28:52;;;;;;;56.42;24.83;;;1.60;99.90;;;;;;4998576;28;20049;-75
2023/01/22 12:31:37;;;;;;;56.20;26.38;;;1.70;99.90;;;;;;4997493;28;20050;-77
2023/01/22 12:34:24;;;;;;;53.15;26.17;;;1.80;99.90;;;;;;4982089;28;20042;-77
2023/01/22 12:36:54;;;;;;;52.10;22.90;;;1.90;99.90;;;;;;5014894;28;20338;-76
2023/01/22 12:39:27;;;;;;;46.33;20.65;;;1.90;99.90;;;;;;5013811;28;20057;-75
2023/01/22 12:42:07;;;;;;;53.78;24.20;;;2.00;99.90;;;;;;4998296;28;20446;-79
2023/01/22 12:44:46;;;;;;;50.45;25.08;;;2.10;99.90;;;;;;4996710;28;20049;-78
2023/01/22 12:47:42;;;;;;;50.00;22.83;;;2.10;99.90;;;;;;4998018;28;20058;-77
2023/01/22 12:50:21;;;;;;;50.05;24.75;;;2.20;99.90;;;;;;4997864;28;20046;-74
2023/01/22 12:53:05;;;;;;;52.42;25.13;;;2.20;99.90;;;;;;4996675;28;20061;-76
2023/01/22 12:55:40;;;;;;;46.47;23.10;;;2.30;99.90;;;;;;4997921;28;20057;-77
2023/01/22 12:58:27;;;;;;;49.80;24.88;;;2.30;99.90;;;;;;4981321;28;20061;-79
2023/01/22 13:01:10;;;;;;;45.38;24.48;;;2.40;99.90;;;;;;5011959;28;20053;-75
2023/01/22 13:03:40;;;;;;;48.30;24.15;;;2.40;99.90;;;;;;5017496;28;20049;-75
2023/01/22 13:06:34;;;;;;;54.20;25.13;;;2.40;99.90;;;;;;5033376;28;20061;-75